createdAt,value
2022-11-26T00:02:23.964Z,16.27
2022-11-26T00:04:53.125Z,16.30
2022-11-26T00:07:26.458Z,13.57
2022-11-26T00:09:57.145Z,14.87
2022-11-26T00:12:29.117Z,14.63
2022-11-26T00:14:56.955Z,10.00
2022-11-26T00:17:25.254Z,10.70
2022-11-26T00:19:52.940Z,11.40
2022-11-26T00:22:26.112Z,9.03
2022-11-26T00:24:56.180Z,10.60
2022-11-26T00:27:28.019Z,11.53
2022-11-26T00:29:56.714Z,7.37
2022-11-26T00:32:26.759Z,8.73
2022-11-26T00:34:55.700Z,10.07
2022-11-26T00:37:26.715Z,9.60
2022-11-26T00:39:57.376Z,8.70
2022-11-26T00:42:25.521Z,12.73
2022-11-26T00:44:53.435Z,8.60
2022-11-26T00:47:21.166Z,8.40
2022-11-26T00:49:49.292Z,11.23
2022-11-26T00:52:28.205Z,16.90
2022-11-26T00:54:58.854Z,8.73
2022-11-26T00:57:27.275Z,9.30
2022-11-26T00:59:55.350Z,11.13
2022-11-26T01:02:23.678Z,10.37
2022-11-26T01:04:51.897Z,7.70
2022-11-26T01:07:20.075Z,8.93
2022-11-26T01:09:48.999Z,13.50
2022-11-26T01:12:18.063Z,10.30
2022-11-26T01:14:45.790Z,11.23
2022-11-26T01:17:13.904Z,9.67
2022-11-26T01:19:47.674Z,13.07
2022-11-26T01:22:21.931Z,9.73
2022-11-26T01:24:50.956Z,12.77
2022-11-26T01:27:20.910Z,12.63
2022-11-26T01:29:49.995Z,10.10
2022-11-26T01:32:18.191Z,11.03
2022-11-26T01:34:47.417Z,16.40
2022-11-26T01:37:15.899Z,8.73
2022-11-26T01:39:43.973Z,14.10
2022-11-26T01:42:27.352Z,12.60
2022-11-26T01:44:55.949Z,13.23
2022-11-26T01:47:26.071Z,12.17
2022-11-26T01:50:33.082Z,10.30
2022-11-26T01:53:05.413Z,11.33
2022-11-26T01:55:37.421Z,11.00
2022-11-26T01:58:11.279Z,9.03
2022-11-26T02:00:40.049Z,12.87
2022-11-26T02:03:08.785Z,9.10
2022-11-26T02:05:43.248Z,12.03
2022-11-26T02:08:12.181Z,17.03
2022-11-26T02:10:40.192Z,11.30
2022-11-26T02:13:09.817Z,13.93
2022-11-26T02:15:46.678Z,10.60
2022-11-26T02:18:16.443Z,11.83
2022-11-26T02:20:55.170Z,11.50
2022-11-26T02:24:02.391Z,11.60
2022-11-26T02:27:04.283Z,9.60
2022-11-26T02:30:06.006Z,13.37
2022-11-26T02:32:52.854Z,11.80
2022-11-26T02:35:25.942Z,10.00
2022-11-26T02:37:57.077Z,9.13
2022-11-26T02:40:26.906Z,12.50
2022-11-26T02:42:55.004Z,10.07
2022-11-26T02:45:28.775Z,9.07
2022-11-26T02:48:00.613Z,11.43
2022-11-26T02:50:32.310Z,9.93
2022-11-26T02:53:01.928Z,11.47
2022-11-26T02:55:34.026Z,11.73
2022-11-26T02:58:02.916Z,13.20
2022-11-26T03:00:34.298Z,11.30
2022-11-26T03:03:08.594Z,9.73
2022-11-26T03:05:40.036Z,9.57
2022-11-26T03:08:08.976Z,11.47
2022-11-26T03:10:37.249Z,12.00
2022-11-26T03:13:05.250Z,10.63
2022-11-26T03:15:34.717Z,9.97
2022-11-26T03:18:02.656Z,16.27
2022-11-26T03:20:30.729Z,9.27
2022-11-26T03:22:58.513Z,11.90
2022-11-26T03:25:26.619Z,9.63
2022-11-26T03:27:56.238Z,15.03
2022-11-26T03:30:25.109Z,11.10
2022-11-26T03:32:54.405Z,12.13
2022-11-26T03:35:22.074Z,11.20
2022-11-26T03:37:50.733Z,10.83
2022-11-26T03:40:18.532Z,9.87
2022-11-26T03:42:46.783Z,13.80
2022-11-26T03:45:17.122Z,15.13
2022-11-26T03:47:44.862Z,9.93
2022-11-26T03:50:14.306Z,9.50
2022-11-26T03:52:43.158Z,12.17
2022-11-26T03:55:11.944Z,11.00
2022-11-26T03:57:41.471Z,15.27
2022-11-26T04:00:10.408Z,10.27
2022-11-26T04:02:38.722Z,17.00
2022-11-26T04:05:07.567Z,13.00
2022-11-26T04:07:37.045Z,12.80
2022-11-26T04:10:06.625Z,12.90
2022-11-26T04:12:34.414Z,14.03
2022-11-26T04:15:02.226Z,14.37
2022-11-26T04:17:29.931Z,11.43
2022-11-26T04:19:58.246Z,9.13
2022-11-26T04:22:27.047Z,9.70
2022-11-26T04:24:56.182Z,5.30
2022-11-26T04:27:23.857Z,7.73
2022-11-26T04:29:51.596Z,10.10
2022-11-26T04:32:19.596Z,8.70
2022-11-26T04:34:47.251Z,5.60
2022-11-26T04:37:14.923Z,6.53
2022-11-26T04:39:42.944Z,7.33
2022-11-26T04:42:12.368Z,6.80
2022-11-26T04:44:40.144Z,8.17
2022-11-26T04:47:08.067Z,5.87
2022-11-26T04:49:35.746Z,8.70
2022-11-26T04:52:03.569Z,6.47
2022-11-26T04:54:31.218Z,5.73
2022-11-26T04:56:58.907Z,4.97
2022-11-26T04:59:28.025Z,7.00
2022-11-26T05:01:56.796Z,6.73
2022-11-26T05:04:25.310Z,8.77
2022-11-26T05:06:52.949Z,6.60
2022-11-26T05:09:21.343Z,6.93
2022-11-26T05:11:48.941Z,5.07
2022-11-26T05:14:17.263Z,8.63
2022-11-26T05:16:46.389Z,7.27
2022-11-26T05:19:14.470Z,6.60
2022-11-26T05:21:42.688Z,9.30
2022-11-26T05:24:10.697Z,14.60
2022-11-26T05:26:38.342Z,6.83
2022-11-26T05:29:06.025Z,9.53
2022-11-26T05:31:33.718Z,7.57
2022-11-26T05:34:02.865Z,6.47
2022-11-26T05:36:31.069Z,7.20
2022-11-26T05:38:58.789Z,12.70
2022-11-26T05:41:26.491Z,9.40
2022-11-26T05:43:54.214Z,12.90
2022-11-26T05:46:23.594Z,8.20
2022-11-26T05:48:51.411Z,10.80
2022-11-26T05:51:20.390Z,7.87
2022-11-26T05:53:48.945Z,6.47
2022-11-26T05:56:18.885Z,7.77
2022-11-26T05:58:47.034Z,9.20
2022-11-26T06:01:14.842Z,8.47
2022-11-26T06:03:43.191Z,11.87
2022-11-26T06:06:11.175Z,6.13
2022-11-26T06:08:40.529Z,9.00
2022-11-26T06:11:08.272Z,7.57
2022-11-26T06:13:36.341Z,7.90
2022-11-26T06:16:05.665Z,15.40
2022-11-26T06:18:33.706Z,25.87
2022-11-26T06:21:01.571Z,39.13
2022-11-26T06:23:29.378Z,28.63
2022-11-26T06:25:58.449Z,13.13
2022-11-26T06:28:26.249Z,16.90
2022-11-26T06:30:54.340Z,13.90
2022-11-26T06:33:22.104Z,11.10
2022-11-26T06:35:49.744Z,13.23
2022-11-26T06:38:17.418Z,16.30
2022-11-26T06:40:45.574Z,13.03
2022-11-26T06:43:14.940Z,15.00
2022-11-26T06:45:43.095Z,9.67
2022-11-26T06:48:10.847Z,15.87
2022-11-26T06:50:38.499Z,10.10
2022-11-26T06:53:06.221Z,15.57
2022-11-26T06:55:33.886Z,16.87
2022-11-26T06:58:01.566Z,12.10
2022-11-26T07:00:30.987Z,14.10
2022-11-26T07:02:59.143Z,17.73
2022-11-26T07:05:27.151Z,12.50
2022-11-26T07:07:55.384Z,12.07
2022-11-26T07:10:23.436Z,12.87
2022-11-26T07:12:51.253Z,14.40
2022-11-26T07:15:19.641Z,11.30
2022-11-26T07:17:48.621Z,13.03
2022-11-26T07:20:16.442Z,8.67
2022-11-26T07:22:44.119Z,13.27
2022-11-26T07:25:12.927Z,11.43
2022-11-26T07:27:40.939Z,10.27
2022-11-26T07:30:10.238Z,11.80
2022-11-26T07:32:37.863Z,14.20
2022-11-26T07:35:07.743Z,10.13
2022-11-26T07:37:35.417Z,15.33
2022-11-26T07:40:03.569Z,14.50
2022-11-26T07:42:33.497Z,10.57
2022-11-26T07:45:01.894Z,11.70
2022-11-26T07:47:29.839Z,11.00
2022-11-26T07:49:58.084Z,8.50
2022-11-26T07:52:27.210Z,12.03
2022-11-26T07:54:55.479Z,28.67
2022-11-26T07:57:23.105Z,26.43
2022-11-26T07:59:50.704Z,26.13
2022-11-26T08:02:19.324Z,20.53
2022-11-26T08:04:46.962Z,16.40
2022-11-26T08:07:20.105Z,15.90
2022-11-26T08:09:54.144Z,12.80
2022-11-26T08:12:21.787Z,13.90
2022-11-26T08:14:49.492Z,10.13
2022-11-26T08:17:17.159Z,12.60
2022-11-26T08:19:44.966Z,10.57
2022-11-26T08:22:12.990Z,7.43
2022-11-26T08:24:41.048Z,8.80
2022-11-26T08:27:10.712Z,11.70
2022-11-26T08:29:39.128Z,9.63
2022-11-26T08:32:07.373Z,8.17
2022-11-26T08:34:35.392Z,6.30
2022-11-26T08:37:03.265Z,9.83
2022-11-26T08:39:31.357Z,9.83
2022-11-26T08:41:59.234Z,6.90
2022-11-26T08:44:28.552Z,9.67
2022-11-26T08:46:57.248Z,8.73
2022-11-26T08:49:25.802Z,9.40
2022-11-26T08:51:56.299Z,6.07
2022-11-26T08:54:24.093Z,6.70
2022-11-26T08:56:52.401Z,8.33
2022-11-26T08:59:22.878Z,6.30
2022-11-26T09:01:52.787Z,9.10
2022-11-26T09:04:20.479Z,11.43
2022-11-26T09:06:48.552Z,7.07
2022-11-26T09:09:17.565Z,6.73
2022-11-26T09:11:49.400Z,6.03
2022-11-26T09:14:20.228Z,6.37
2022-11-26T09:16:48.240Z,5.73
2022-11-26T09:19:18.404Z,6.40
2022-11-26T09:21:46.822Z,8.90
2022-11-26T09:24:16.828Z,9.50
2022-11-26T09:26:45.673Z,8.27
2022-11-26T09:29:14.356Z,6.57
2022-11-26T09:32:00.623Z,9.73
2022-11-26T09:34:32.070Z,6.90
2022-11-26T09:36:59.753Z,10.93
2022-11-26T09:39:28.448Z,6.43
2022-11-26T09:42:04.611Z,7.60
2022-11-26T09:44:55.393Z,9.47
2022-11-26T09:47:27.182Z,7.00
2022-11-26T09:50:06.322Z,7.80
2022-11-26T09:52:38.507Z,10.17
2022-11-26T09:55:16.554Z,6.40
2022-11-26T09:57:55.449Z,8.87
2022-11-26T10:00:26.872Z,5.80
2022-11-26T10:02:56.006Z,9.13
2022-11-26T10:05:38.554Z,7.23
2022-11-26T10:08:21.132Z,10.57
2022-11-26T10:10:58.779Z,9.10
2022-11-26T10:13:41.008Z,8.33
2022-11-26T10:16:15.942Z,8.40
2022-11-26T10:18:52.430Z,7.43
2022-11-26T10:21:37.922Z,13.53
2022-11-26T10:24:20.634Z,8.80
2022-11-26T10:26:49.512Z,7.90
2022-11-26T10:29:23.968Z,8.13
2022-11-26T10:31:58.897Z,8.50
2022-11-26T10:34:37.415Z,15.07
2022-11-26T10:37:08.075Z,7.70
2022-11-26T10:39:35.832Z,10.83
2022-11-26T10:42:29.256Z,9.30
2022-11-26T10:44:56.919Z,10.53
2022-11-26T10:47:27.926Z,6.20
2022-11-26T10:49:58.312Z,6.90
2022-11-26T10:52:30.522Z,8.83
2022-11-26T10:55:11.126Z,8.07
2022-11-26T10:57:44.971Z,7.50
2022-11-26T11:00:38.114Z,12.03
2022-11-26T11:03:15.346Z,8.50
2022-11-26T11:05:45.106Z,12.73
2022-11-26T11:08:30.185Z,10.90
2022-11-26T11:11:00.470Z,9.10
2022-11-26T11:13:41.005Z,12.43
2022-11-26T11:16:10.462Z,8.87
2022-11-26T11:18:38.363Z,7.90
2022-11-26T11:21:07.439Z,11.30
2022-11-26T11:24:08.109Z,6.77
2022-11-26T11:26:28.741Z,8.20
2022-11-26T11:28:58.159Z,6.23
2022-11-26T11:31:28.835Z,8.97
2022-11-26T11:34:14.133Z,8.03
2022-11-26T11:36:42.193Z,8.00
2022-11-26T11:39:29.353Z,6.60
2022-11-26T11:41:58.938Z,6.87
2022-11-26T11:44:28.528Z,9.63
2022-11-26T11:47:25.749Z,8.67
2022-11-26T11:50:13.016Z,7.50
2022-11-26T11:52:54.784Z,10.13
2022-11-26T11:55:37.170Z,7.97
2022-11-26T11:58:30.717Z,12.03
2022-11-26T12:01:07.612Z,8.37
2022-11-26T12:04:08.412Z,6.60
2022-11-26T12:06:50.878Z,10.87
2022-11-26T12:09:25.720Z,7.90
2022-11-26T12:12:00.276Z,9.53
2022-11-26T12:14:35.775Z,8.10
2022-11-26T12:17:08.581Z,11.20
2022-11-26T12:19:42.540Z,7.23
2022-11-26T12:22:19.629Z,8.07
2022-11-26T12:24:51.886Z,9.13
2022-11-26T12:27:32.703Z,5.90
2022-11-26T12:30:05.316Z,6.37
2022-11-26T12:32:37.467Z,6.63
2022-11-26T12:35:12.869Z,7.73
2022-11-26T12:37:42.120Z,4.73
2022-11-26T12:40:26.074Z,7.83
2022-11-26T12:42:59.851Z,6.70
2022-11-26T12:45:41.857Z,14.77
2022-11-26T12:48:19.678Z,8.00
2022-11-26T12:50:53.804Z,7.73
2022-11-26T12:53:38.154Z,10.13
2022-11-26T12:56:14.900Z,9.13
2022-11-26T12:58:52.986Z,3.90
2022-11-26T13:01:20.903Z,8.30
2022-11-26T13:03:48.783Z,5.80
2022-11-26T13:06:28.490Z,6.23
2022-11-26T13:09:05.499Z,5.73
2022-11-26T13:11:43.784Z,6.87
2022-11-26T13:14:20.780Z,6.50
2022-11-26T13:16:56.347Z,10.90
2022-11-26T13:19:32.017Z,12.60
2022-11-26T13:22:19.874Z,7.97
2022-11-26T13:25:02.155Z,4.23
2022-11-26T13:27:45.217Z,5.63
2022-11-26T13:30:21.121Z,8.87
2022-11-26T13:33:20.442Z,5.37
2022-11-26T13:36:13.654Z,6.90
2022-11-26T13:38:57.041Z,7.87
2022-11-26T13:41:47.441Z,6.73
2022-11-26T13:44:56.291Z,6.20
2022-11-26T13:47:30.908Z,5.00
2022-11-26T13:50:03.548Z,5.27
2022-11-26T13:52:38.390Z,4.10
2022-11-26T13:55:12.567Z,10.03
2022-11-26T13:57:44.026Z,9.10
2022-11-26T14:00:12.817Z,4.73
2022-11-26T14:02:44.480Z,5.67
2022-11-26T14:05:15.413Z,4.83
2022-11-26T14:07:45.280Z,6.17
2022-11-26T14:10:45.392Z,4.90
2022-11-26T14:13:17.340Z,4.83
2022-11-26T14:15:53.493Z,3.67
2022-11-26T14:19:01.386Z,8.63
2022-11-26T14:21:31.109Z,4.80
2022-11-26T14:24:01.362Z,6.10
2022-11-26T14:26:34.171Z,4.90
2022-11-26T14:29:12.372Z,3.57
2022-11-26T14:31:44.135Z,6.20
2022-11-26T14:34:18.217Z,5.20
2022-11-26T14:36:54.856Z,4.67
2022-11-26T14:39:22.528Z,5.67
2022-11-26T14:42:00.361Z,5.10
2022-11-26T14:44:32.648Z,6.10
2022-11-26T14:47:09.470Z,6.40
2022-11-26T14:49:42.626Z,9.57
2022-11-26T14:52:20.313Z,4.70
2022-11-26T14:54:52.008Z,6.60
2022-11-26T14:57:24.834Z,7.53
2022-11-26T14:59:56.594Z,5.83
2022-11-26T15:02:26.939Z,7.30
2022-11-26T15:05:04.363Z,5.23
2022-11-26T15:07:32.687Z,4.97
2022-11-26T15:10:08.036Z,4.50
2022-11-26T15:12:37.315Z,8.83
2022-11-26T15:15:06.960Z,8.47
2022-11-26T15:17:35.387Z,7.17
2022-11-26T15:20:08.994Z,8.80
2022-11-26T15:22:39.755Z,7.33
2022-11-26T15:25:17.596Z,9.67
2022-11-26T15:27:54.075Z,6.23
2022-11-26T15:30:24.441Z,5.63
2022-11-26T15:32:57.887Z,9.60
2022-11-26T15:35:27.477Z,11.73
2022-11-26T15:37:55.371Z,5.40
2022-11-26T15:40:25.089Z,7.50
2022-11-26T15:42:57.686Z,9.27
2022-11-26T15:45:35.332Z,6.63
2022-11-26T15:48:04.491Z,7.60
2022-11-26T15:50:37.282Z,6.90
2022-11-26T15:53:08.628Z,6.90
2022-11-26T15:55:37.999Z,6.93
2022-11-26T15:58:09.787Z,7.17
2022-11-26T16:00:40.943Z,7.00
2022-11-26T16:03:47.118Z,5.60
2022-11-26T16:06:31.846Z,5.47
2022-11-26T16:09:03.035Z,10.40
2022-11-26T16:11:34.354Z,7.30
2022-11-26T16:14:24.533Z,6.87
2022-11-26T16:16:53.124Z,9.10
2022-11-26T16:19:22.619Z,10.20
2022-11-26T16:21:53.474Z,8.77
2022-11-26T16:24:30.590Z,12.57
2022-11-26T16:27:00.830Z,9.37
2022-11-26T16:29:30.105Z,8.80
2022-11-26T16:31:57.831Z,9.13
2022-11-26T16:34:27.407Z,9.13
2022-11-26T16:37:02.209Z,8.43
2022-11-26T16:39:36.167Z,15.50
2022-11-26T16:42:15.084Z,22.53
2022-11-26T16:44:42.893Z,14.20
2022-11-26T16:47:15.636Z,9.97
2022-11-26T16:49:43.295Z,9.87
2022-11-26T16:52:19.857Z,12.13
2022-11-26T16:54:49.528Z,9.07
2022-11-26T16:57:19.843Z,8.47
2022-11-26T16:59:59.556Z,16.40
2022-11-26T17:02:27.414Z,16.63
2022-11-26T17:04:55.328Z,11.47
2022-11-26T17:07:26.180Z,9.70
2022-11-26T17:09:55.746Z,14.63
2022-11-26T17:12:25.038Z,13.00
2022-11-26T17:17:30.144Z,13.60
2022-11-26T17:19:57.776Z,7.93
2022-11-26T17:22:25.601Z,12.03
2022-11-26T17:24:53.467Z,12.50
2022-11-26T17:27:23.430Z,10.60
2022-11-26T17:29:51.213Z,11.93
2022-11-26T17:32:20.587Z,12.70
2022-11-26T17:34:49.007Z,15.50
2022-11-26T17:37:22.001Z,9.87
2022-11-26T17:39:50.210Z,7.10
2022-11-26T17:42:20.009Z,13.77
2022-11-26T17:44:51.746Z,9.87
2022-11-26T17:47:21.234Z,11.33
2022-11-26T17:49:50.049Z,16.10
2022-11-26T17:52:18.432Z,18.33
2022-11-26T17:54:46.862Z,10.30
2022-11-26T17:57:16.194Z,16.53
2022-11-26T17:59:44.424Z,17.03
2022-11-26T18:02:13.979Z,18.20
2022-11-26T18:04:41.738Z,15.03
2022-11-26T18:07:13.963Z,13.53
2022-11-26T18:09:42.669Z,12.40
2022-11-26T18:12:23.121Z,13.03
2022-11-26T18:14:52.810Z,13.43
2022-11-26T18:17:21.874Z,11.03
2022-11-26T18:19:50.164Z,16.33
2022-11-26T18:22:20.784Z,11.67
2022-11-26T18:24:56.515Z,11.57
2022-11-26T18:27:26.678Z,10.30
2022-11-26T18:29:54.714Z,10.53
2022-11-26T18:32:23.754Z,10.70
2022-11-26T18:34:51.494Z,11.60
2022-11-26T18:37:19.492Z,8.47
2022-11-26T18:39:47.289Z,8.40
2022-11-26T18:42:35.961Z,10.00
2022-11-26T18:45:02.662Z,17.47
2022-11-26T18:47:31.669Z,15.00
2022-11-26T18:49:59.335Z,14.20
2022-11-26T18:52:27.211Z,12.60
2022-11-26T18:54:54.946Z,10.10
2022-11-26T18:57:22.620Z,13.50
2022-11-26T18:59:51.506Z,8.87
2022-11-26T19:02:19.432Z,11.30
2022-11-26T19:04:48.876Z,9.83
2022-11-26T19:07:16.638Z,11.93
2022-11-26T19:09:44.346Z,10.63
2022-11-26T19:12:13.609Z,9.97
2022-11-26T19:14:41.517Z,11.10
2022-11-26T19:17:09.221Z,10.03
2022-11-26T19:19:39.284Z,7.27
2022-11-26T19:22:08.460Z,8.43
2022-11-26T19:24:36.202Z,10.10
2022-11-26T19:27:03.843Z,13.70
2022-11-26T19:29:31.510Z,10.90
2022-11-26T19:31:59.247Z,14.17
2022-11-26T19:34:26.940Z,31.90
2022-11-26T19:36:57.630Z,26.30
2022-11-26T19:39:26.720Z,15.07
2022-11-26T19:41:55.340Z,17.10
2022-11-26T19:44:23.142Z,17.40
2022-11-26T19:46:53.240Z,19.93
2022-11-26T19:49:20.855Z,21.47
2022-11-26T19:51:48.766Z,17.93
2022-11-26T19:54:16.433Z,16.53
2022-11-26T19:56:46.779Z,17.63
2022-11-26T19:59:14.532Z,22.20
2022-11-26T20:01:43.020Z,16.90
2022-11-26T20:04:14.111Z,13.80
2022-11-26T20:06:42.304Z,19.40
2022-11-26T20:09:13.051Z,15.10
2022-11-26T20:11:42.400Z,16.40
2022-11-26T20:14:13.572Z,11.53
2022-11-26T20:16:44.224Z,15.80
2022-11-26T20:19:13.217Z,16.13
2022-11-26T20:21:40.978Z,13.50
2022-11-26T20:24:13.031Z,13.17
2022-11-26T20:26:43.168Z,20.03
2022-11-26T20:29:14.141Z,17.83
2022-11-26T20:31:46.439Z,14.10
2022-11-26T20:34:15.699Z,14.17
2022-11-26T20:36:43.565Z,12.67
2022-11-26T20:39:14.043Z,12.37
2022-11-26T20:41:45.229Z,12.03
2022-11-26T20:44:15.252Z,13.00
2022-11-26T20:46:43.949Z,14.13
2022-11-26T20:49:12.197Z,14.00
2022-11-26T20:51:41.623Z,15.03
2022-11-26T20:54:10.664Z,12.33
2022-11-26T20:56:38.813Z,13.67
2022-11-26T20:59:09.784Z,12.83
2022-11-26T21:01:39.548Z,19.60
2022-11-26T21:04:08.218Z,16.43
2022-11-26T21:06:36.737Z,13.70
2022-11-26T21:09:07.277Z,13.90
2022-11-26T21:11:35.641Z,14.10
2022-11-26T21:14:03.809Z,13.17
2022-11-26T21:16:32.914Z,15.17
2022-11-26T21:19:02.035Z,12.93
2022-11-26T21:21:30.425Z,12.83
2022-11-26T21:23:58.765Z,12.70
2022-11-26T21:26:28.365Z,14.90
2022-11-26T21:28:58.010Z,18.90
2022-11-26T21:31:26.858Z,14.77
2022-11-26T21:33:57.099Z,19.33
2022-11-26T21:36:26.627Z,17.67
2022-11-26T21:38:55.766Z,21.27
2022-11-26T21:41:24.547Z,16.03
2022-11-26T21:43:52.806Z,20.53
2022-11-26T21:46:22.042Z,17.60
2022-11-26T21:48:50.305Z,14.43
2022-11-26T21:51:18.742Z,15.70
2022-11-26T21:53:49.858Z,14.67
2022-11-26T21:56:19.629Z,16.70
2022-11-26T21:58:47.661Z,20.70
2022-11-26T22:01:17.125Z,16.87
2022-11-26T22:03:47.397Z,18.57
2022-11-26T22:06:16.463Z,15.30
2022-11-26T22:08:44.831Z,24.67
2022-11-26T22:11:16.181Z,18.73
2022-11-26T22:13:44.297Z,22.40
2022-11-26T22:16:14.187Z,19.27
2022-11-26T22:18:43.462Z,18.40
2022-11-26T22:21:14.094Z,17.10
2022-11-26T22:23:41.751Z,21.60
2022-11-26T22:26:09.676Z,15.00
2022-11-26T22:28:39.474Z,21.13
2022-11-26T22:31:12.660Z,19.13
2022-11-26T22:33:40.837Z,19.60
2022-11-26T22:36:10.171Z,24.63
2022-11-26T22:38:38.856Z,18.20
2022-11-26T22:41:09.248Z,20.20
2022-11-26T22:43:38.722Z,20.10
2022-11-26T22:46:07.942Z,20.30
2022-11-26T22:48:36.490Z,16.77
2022-11-26T22:51:04.746Z,23.90
2022-11-26T22:53:33.343Z,26.83
2022-11-26T22:56:03.161Z,27.57
2022-11-26T22:58:33.566Z,21.80
2022-11-26T23:01:05.063Z,23.27
2022-11-26T23:03:35.292Z,24.00
2022-11-26T23:06:04.633Z,19.70
2022-11-26T23:08:32.517Z,20.37
2022-11-26T23:11:16.387Z,18.97
2022-11-26T23:13:46.223Z,23.93
2022-11-26T23:16:15.451Z,18.87
2022-11-26T23:18:44.036Z,20.40
2022-11-26T23:21:14.058Z,26.43
2022-11-26T23:23:43.136Z,25.43
2022-11-26T23:26:14.552Z,23.40
2022-11-26T23:28:42.326Z,26.27
2022-11-26T23:31:14.895Z,18.27
2022-11-26T23:33:44.127Z,18.37
2022-11-26T23:36:12.792Z,22.53
2022-11-26T23:38:40.761Z,27.30
2022-11-26T23:41:09.956Z,23.00
2022-11-26T23:43:39.260Z,15.53
2022-11-26T23:46:08.839Z,18.20
2022-11-26T23:48:37.563Z,20.30
2022-11-26T23:51:09.620Z,16.67
2022-11-26T23:53:38.208Z,19.30
2022-11-26T23:56:08.248Z,16.47
2022-11-26T23:58:36.285Z,14.30
